createdAt,value
2023-11-29T00:11:44.095Z,69.57
2023-11-29T00:30:38.224Z,69.66
2023-11-29T00:44:21.280Z,69.65
2023-11-29T00:48:59.466Z,69.67
2023-11-29T01:02:54.437Z,69.68
2023-11-29T01:16:22.784Z,69.75
2023-11-29T01:43:54.090Z,69.39
2023-11-29T01:53:12.422Z,69.81
2023-11-29T02:21:05.130Z,70.31
2023-11-29T02:25:45.994Z,69.94
2023-11-29T02:35:24.352Z,70.19
2023-11-29T02:53:39.858Z,70.69
2023-11-29T03:03:08.647Z,70.09
2023-11-29T03:07:45.555Z,70.23
2023-11-29T03:16:55.448Z,70.17
2023-11-29T03:26:41.086Z,70.74
2023-11-29T03:35:49.932Z,71.34
2023-11-29T03:40:14.036Z,71.25
2023-11-29T03:58:59.245Z,70.86
2023-11-29T05:04:13.494Z,71.07
2023-11-29T05:27:11.138Z,71.04
2023-11-29T05:46:27.762Z,70.77
2023-11-29T06:20:19.996Z,70.77
2023-11-29T06:22:54.540Z,71.08
2023-11-29T06:25:27.401Z,70.85
2023-11-29T06:28:02.507Z,70.88
2023-11-29T06:30:32.987Z,70.56
2023-11-29T06:33:04.070Z,70.81
2023-11-29T06:35:34.609Z,70.48
2023-11-29T06:38:08.336Z,70.34
2023-11-29T06:40:44.179Z,70.50
2023-11-29T06:43:20.639Z,70.09
2023-11-29T06:45:50.992Z,70.44
2023-11-29T06:48:22.223Z,70.13
2023-11-29T06:50:55.325Z,70.25
2023-11-29T06:53:23.420Z,69.75
2023-11-29T06:55:51.577Z,70.40
2023-11-29T06:58:24.278Z,70.00
2023-11-29T07:00:53.926Z,70.02
2023-11-29T07:03:27.772Z,70.01
2023-11-29T07:05:58.623Z,70.40
2023-11-29T07:08:32.650Z,69.99
2023-11-29T07:11:05.976Z,69.99
2023-11-29T07:13:37.278Z,70.08
2023-11-29T07:16:08.629Z,69.84
2023-11-29T07:18:38.749Z,70.13
2023-11-29T07:21:08.935Z,69.71
2023-11-29T07:23:37.335Z,69.70
2023-11-29T07:26:10.160Z,69.79
2023-11-29T07:28:41.957Z,69.76
2023-11-29T07:31:15.022Z,69.21
2023-11-29T07:33:48.002Z,69.22
2023-11-29T07:36:18.670Z,69.39
2023-11-29T07:38:54.482Z,69.33
2023-11-29T07:41:25.000Z,69.68
2023-11-29T07:43:55.683Z,69.45
2023-11-29T07:46:23.838Z,69.41
2023-11-29T07:48:57.077Z,69.41
2023-11-29T07:51:31.019Z,69.18
2023-11-29T07:54:03.920Z,68.86
2023-11-29T07:56:34.299Z,68.51
2023-11-29T07:59:04.802Z,68.64
2023-11-29T08:01:38.829Z,68.80
2023-11-29T08:04:09.966Z,68.55
2023-11-29T08:06:42.640Z,68.61
2023-11-29T08:09:13.526Z,68.17
2023-11-29T08:11:46.017Z,68.27
2023-11-29T08:14:18.963Z,68.20
2023-11-29T08:16:47.611Z,68.25
2023-11-29T08:19:20.115Z,68.24
2023-11-29T08:21:53.061Z,68.09
2023-11-29T08:24:28.203Z,67.94
2023-11-29T08:26:58.601Z,67.82
2023-11-29T08:29:26.595Z,67.80
2023-11-29T08:31:56.850Z,67.72
2023-11-29T08:34:29.705Z,67.39
2023-11-29T08:36:57.749Z,67.13
2023-11-29T08:39:27.379Z,66.87
2023-11-29T08:41:58.584Z,66.79
2023-11-29T08:44:26.877Z,66.85
2023-11-29T08:46:57.275Z,66.85
2023-11-29T08:49:27.755Z,66.92
2023-11-29T08:51:56.825Z,66.91
2023-11-29T08:54:24.935Z,66.86
2023-11-29T08:57:00.520Z,66.71
2023-11-29T08:59:29.559Z,66.86
2023-11-29T09:02:02.654Z,66.54
2023-11-29T09:04:31.793Z,66.72
2023-11-29T09:07:00.792Z,66.64
2023-11-29T09:09:31.187Z,66.54
2023-11-29T09:12:01.721Z,66.50
2023-11-29T09:14:34.651Z,66.34
2023-11-29T09:17:07.443Z,65.91
2023-11-29T09:19:39.254Z,65.88
2023-11-29T09:22:09.177Z,65.28
2023-11-29T09:24:41.884Z,65.31
2023-11-29T09:27:13.159Z,65.41
2023-11-29T09:29:42.149Z,65.45
2023-11-29T09:32:10.406Z,65.29
2023-11-29T09:34:43.314Z,65.48
2023-11-29T09:37:13.581Z,65.37
2023-11-29T09:39:42.333Z,65.16
2023-11-29T09:42:13.550Z,65.14
2023-11-29T09:44:49.200Z,65.41
2023-11-29T09:47:18.260Z,65.01
2023-11-29T09:49:50.229Z,65.07
2023-11-29T09:52:24.579Z,64.50
2023-11-29T09:54:52.979Z,64.43
2023-11-29T09:57:23.865Z,64.72
2023-11-29T09:59:59.297Z,64.71
2023-11-29T10:02:34.855Z,64.69
2023-11-29T10:05:03.396Z,64.37
2023-11-29T10:07:33.660Z,64.30
2023-11-29T10:10:08.676Z,64.46
2023-11-29T10:12:45.988Z,64.33
2023-11-29T10:15:14.868Z,64.26
2023-11-29T10:17:45.880Z,64.18
2023-11-29T10:20:18.998Z,64.02
2023-11-29T10:22:50.682Z,63.79
2023-11-29T10:25:22.806Z,63.91
2023-11-29T10:27:55.790Z,63.75
2023-11-29T10:30:24.028Z,63.95
2023-11-29T10:32:55.240Z,63.70
2023-11-29T10:35:28.738Z,63.81
2023-11-29T10:38:19.418Z,63.64
2023-11-29T10:40:51.023Z,63.79
2023-11-29T10:43:28.044Z,63.44
2023-11-29T10:46:07.504Z,63.38
2023-11-29T10:48:43.247Z,63.35
2023-11-29T10:51:14.734Z,63.23
2023-11-29T10:53:45.096Z,63.18
2023-11-29T10:56:16.899Z,63.58
2023-11-29T10:59:14.260Z,63.05
2023-11-29T11:01:46.587Z,62.35
2023-11-29T11:04:15.323Z,62.83
2023-11-29T11:06:45.852Z,62.74
2023-11-29T11:09:31.891Z,62.62
2023-11-29T11:12:03.364Z,62.66
2023-11-29T11:14:54.958Z,62.44
2023-11-29T11:17:24.595Z,62.60
2023-11-29T11:20:08.245Z,62.90
2023-11-29T11:22:47.729Z,62.75
2023-11-29T11:25:18.255Z,62.78
2023-11-29T11:27:54.926Z,62.94
2023-11-29T11:30:23.959Z,62.33
2023-11-29T11:32:57.690Z,62.53
2023-11-29T11:35:31.589Z,62.24
2023-11-29T11:38:08.147Z,62.18
2023-11-29T11:40:44.456Z,62.17
2023-11-29T11:43:16.832Z,62.01
2023-11-29T11:45:46.741Z,61.81
2023-11-29T11:48:17.387Z,61.44
2023-11-29T11:50:47.788Z,61.22
2023-11-29T11:53:18.620Z,62.06
2023-11-29T11:55:49.522Z,61.41
2023-11-29T11:58:26.439Z,61.56
2023-11-29T12:00:57.166Z,61.44
2023-11-29T12:03:25.503Z,60.95
2023-11-29T12:06:00.888Z,60.69
2023-11-29T12:08:35.439Z,60.78
2023-11-29T12:11:06.321Z,60.75
2023-11-29T12:13:40.694Z,60.28
2023-11-29T12:16:27.884Z,60.51
2023-11-29T12:18:56.435Z,60.37
2023-11-29T12:21:25.931Z,60.88
2023-11-29T12:24:07.451Z,60.62
2023-11-29T12:26:38.821Z,60.57
2023-11-29T12:29:11.769Z,60.99
2023-11-29T12:31:42.656Z,60.99
2023-11-29T12:34:13.784Z,60.78
2023-11-29T12:36:50.190Z,60.90
2023-11-29T12:39:18.197Z,60.56
2023-11-29T12:41:48.678Z,61.15
2023-11-29T12:44:19.725Z,61.15
2023-11-29T12:46:48.034Z,61.22
2023-11-29T12:49:19.509Z,60.74
2023-11-29T12:51:56.531Z,60.93
2023-11-29T12:54:28.028Z,61.25
2023-11-29T12:56:58.897Z,61.55
2023-11-29T12:59:29.429Z,61.45
2023-11-29T13:02:00.602Z,61.85
2023-11-29T13:04:31.814Z,61.64
2023-11-29T13:06:59.913Z,61.45
2023-11-29T13:09:34.943Z,61.69
2023-11-29T13:12:08.363Z,61.61
2023-11-29T13:14:43.595Z,61.83
2023-11-29T13:17:13.669Z,61.67
2023-11-29T13:19:46.625Z,61.62
2023-11-29T13:22:16.920Z,61.44
2023-11-29T13:24:45.157Z,61.66
2023-11-29T13:27:15.385Z,61.28
2023-11-29T13:29:48.123Z,61.46
2023-11-29T13:32:20.713Z,61.67
2023-11-29T13:34:48.703Z,61.92
2023-11-29T13:37:16.829Z,61.70
2023-11-29T13:39:47.131Z,62.06
2023-11-29T13:42:22.505Z,62.22
2023-11-29T13:44:52.991Z,62.00
2023-11-29T13:47:23.556Z,61.97
2023-11-29T13:49:54.427Z,62.18
2023-11-29T13:52:27.874Z,62.30
2023-11-29T13:54:59.889Z,62.56
2023-11-29T13:57:30.522Z,62.32
2023-11-29T13:59:58.638Z,62.60
2023-11-29T14:02:31.370Z,62.42
2023-11-29T14:05:01.956Z,62.28
2023-11-29T14:07:29.982Z,62.66
2023-11-29T14:10:00.523Z,62.35
2023-11-29T14:12:35.934Z,62.54
2023-11-29T14:15:06.672Z,62.49
2023-11-29T14:17:35.162Z,62.74
2023-11-29T14:20:09.693Z,62.79
2023-11-29T14:22:37.953Z,62.83
2023-11-29T14:25:06.691Z,62.94
2023-11-29T14:27:48.048Z,62.77
2023-11-29T14:30:22.753Z,63.05
2023-11-29T14:32:56.505Z,63.20
2023-11-29T14:35:29.473Z,63.25
2023-11-29T14:37:59.762Z,63.45
2023-11-29T14:40:27.911Z,63.34
2023-11-29T14:42:56.644Z,63.54
2023-11-29T14:45:24.815Z,63.34
2023-11-29T14:47:55.770Z,63.63
2023-11-29T14:50:24.152Z,63.48
2023-11-29T14:52:52.330Z,63.77
2023-11-29T14:55:20.751Z,63.52
2023-11-29T14:57:56.199Z,63.58
2023-11-29T15:00:27.202Z,63.68
2023-11-29T15:02:57.618Z,63.65
2023-11-29T15:05:28.154Z,63.67
2023-11-29T15:07:58.825Z,63.75
2023-11-29T15:10:29.791Z,64.15
2023-11-29T15:13:00.256Z,64.17
2023-11-29T15:15:30.591Z,64.09
2023-11-29T15:17:59.072Z,64.74
2023-11-29T15:20:29.568Z,64.47
2023-11-29T15:22:57.738Z,64.50
2023-11-29T15:25:25.792Z,64.64
2023-11-29T15:27:53.816Z,64.72
2023-11-29T15:30:24.290Z,64.51
2023-11-29T15:32:54.969Z,64.93
2023-11-29T15:35:23.408Z,65.45
2023-11-29T15:37:51.530Z,65.69
2023-11-29T15:40:21.942Z,65.57
2023-11-29T15:42:50.060Z,65.16
2023-11-29T15:45:20.605Z,65.75
2023-11-29T15:47:51.288Z,65.20
2023-11-29T15:50:19.980Z,65.43
2023-11-29T15:52:48.081Z,65.33
2023-11-29T15:55:16.305Z,65.12
2023-11-29T15:57:46.897Z,64.80
2023-11-29T16:00:15.604Z,64.75
2023-11-29T16:02:46.704Z,65.16
2023-11-29T16:05:17.906Z,65.64
2023-11-29T16:07:48.724Z,66.10
2023-11-29T16:10:21.515Z,66.16
2023-11-29T16:12:52.527Z,65.77
2023-11-29T16:15:20.621Z,65.72
2023-11-29T16:17:49.153Z,66.28
2023-11-29T16:20:17.336Z,66.40
2023-11-29T16:22:45.491Z,66.53
2023-11-29T16:25:16.104Z,66.59
2023-11-29T16:27:47.215Z,67.05
2023-11-29T16:30:15.808Z,67.12
2023-11-29T16:32:44.121Z,67.36
2023-11-29T16:35:12.349Z,66.59
2023-11-29T16:37:40.532Z,67.12
2023-11-29T16:40:13.733Z,67.06
2023-11-29T16:42:44.274Z,67.03
2023-11-29T16:45:12.429Z,66.94
2023-11-29T16:47:40.705Z,67.40
2023-11-29T16:50:09.470Z,66.94
2023-11-29T16:52:42.007Z,66.95
2023-11-29T16:55:13.618Z,67.30
2023-11-29T16:57:44.107Z,66.96
2023-11-29T17:00:13.633Z,66.75
2023-11-29T17:02:41.941Z,67.00
2023-11-29T17:05:10.222Z,67.24
2023-11-29T17:07:38.320Z,66.82
2023-11-29T17:10:10.036Z,66.68
2023-11-29T17:12:43.871Z,66.68
2023-11-29T17:15:16.908Z,66.97
2023-11-29T17:17:48.214Z,67.12
2023-11-29T17:20:16.520Z,67.23
2023-11-29T17:22:45.158Z,67.32
2023-11-29T17:25:17.954Z,67.34
2023-11-29T17:27:48.376Z,67.40
2023-11-29T17:30:21.244Z,67.72
2023-11-29T17:32:51.617Z,67.54
2023-11-29T17:35:19.740Z,67.60
2023-11-29T17:37:50.849Z,67.88
2023-11-29T17:40:18.839Z,67.97
2023-11-29T17:42:50.676Z,68.32
2023-11-29T17:45:21.242Z,68.85
2023-11-29T17:47:56.399Z,68.91
2023-11-29T17:50:26.946Z,69.35
2023-11-29T17:52:57.509Z,69.22
2023-11-29T17:55:25.498Z,69.12
2023-11-29T17:57:55.907Z,69.11
2023-11-29T18:00:29.070Z,68.86
2023-11-29T18:02:57.119Z,68.86
2023-11-29T18:05:27.647Z,68.77
2023-11-29T18:07:55.711Z,68.92
2023-11-29T18:10:28.990Z,69.15
2023-11-29T18:13:04.494Z,69.15
2023-11-29T18:15:37.106Z,69.35
2023-11-29T18:18:05.269Z,69.10
2023-11-29T18:20:33.278Z,69.16
2023-11-29T18:23:05.499Z,69.25
2023-11-29T18:25:33.537Z,69.38
2023-11-29T18:28:04.727Z,68.78
2023-11-29T18:30:35.076Z,69.28
2023-11-29T18:33:03.455Z,68.80
2023-11-29T18:35:32.328Z,69.07
2023-11-29T18:38:02.728Z,69.09
2023-11-29T18:40:35.612Z,68.69
2023-11-29T18:43:04.145Z,69.00
2023-11-29T18:45:35.276Z,69.04
2023-11-29T18:48:10.679Z,68.88
2023-11-29T18:50:43.806Z,68.70
2023-11-29T18:53:19.318Z,68.51
2023-11-29T18:55:49.756Z,68.62
2023-11-29T18:58:17.814Z,68.32
2023-11-29T19:00:48.182Z,67.89
2023-11-29T19:03:21.220Z,67.51
2023-11-29T19:05:49.690Z,67.94
2023-11-29T19:08:19.892Z,68.35
2023-11-29T19:10:52.846Z,68.40
2023-11-29T19:13:24.921Z,68.73
2023-11-29T19:15:55.149Z,68.65
2023-11-29T19:18:25.784Z,68.86
2023-11-29T19:20:56.646Z,68.95
2023-11-29T19:23:34.034Z,69.06
2023-11-29T19:26:09.692Z,68.83
2023-11-29T19:28:45.144Z,68.50
2023-11-29T19:31:15.518Z,68.48
2023-11-29T19:33:53.049Z,68.63
2023-11-29T19:36:24.359Z,68.72
2023-11-29T19:38:57.401Z,68.94
2023-11-29T19:41:25.500Z,69.10
2023-11-29T19:43:55.863Z,69.09
2023-11-29T19:46:26.279Z,69.14
2023-11-29T19:48:54.438Z,69.27
2023-11-29T19:51:25.143Z,69.08
2023-11-29T19:54:00.457Z,68.84
2023-11-29T19:56:33.145Z,68.17
2023-11-29T19:59:04.434Z,68.81
2023-11-29T20:01:33.496Z,68.49
2023-11-29T20:04:01.758Z,68.22
2023-11-29T20:06:37.178Z,68.29
2023-11-29T20:09:11.997Z,68.02
2023-11-29T20:11:40.205Z,67.79
2023-11-29T20:14:16.856Z,67.94
2023-11-29T20:16:50.364Z,67.88
2023-11-29T20:19:18.550Z,67.43
2023-11-29T20:21:48.937Z,68.17
2023-11-29T20:24:20.452Z,67.97
2023-11-29T20:26:48.511Z,68.56
2023-11-29T20:29:19.021Z,68.68
2023-11-29T20:31:47.208Z,68.21
2023-11-29T20:34:27.853Z,68.43
2023-11-29T20:37:08.389Z,68.19
2023-11-29T20:39:41.126Z,68.44
2023-11-29T20:42:11.788Z,68.48
2023-11-29T20:44:47.797Z,68.88
2023-11-29T20:47:18.711Z,69.08
2023-11-29T20:49:46.736Z,69.51
2023-11-29T20:52:14.758Z,69.73
2023-11-29T20:54:47.544Z,69.30
2023-11-29T20:57:18.216Z,69.54
2023-11-29T20:59:48.354Z,69.29
2023-11-29T21:02:16.920Z,69.27
2023-11-29T21:04:52.320Z,69.03
2023-11-29T21:07:22.691Z,68.91
2023-11-29T21:09:53.160Z,68.95
2023-11-29T21:12:21.216Z,69.25
2023-11-29T21:14:52.451Z,69.39
2023-11-29T21:17:25.281Z,69.28
2023-11-29T21:19:55.659Z,69.64
2023-11-29T21:22:23.701Z,69.54
2023-11-29T21:24:56.634Z,69.32
2023-11-29T21:27:29.509Z,69.29
2023-11-29T21:30:05.026Z,68.98
2023-11-29T21:32:33.013Z,68.91
2023-11-29T21:35:03.210Z,69.27
2023-11-29T21:37:31.227Z,69.11
2023-11-29T21:39:59.469Z,69.24
2023-11-29T21:42:29.963Z,69.37
2023-11-29T21:45:00.334Z,69.13
2023-11-29T21:47:33.548Z,69.17
2023-11-29T21:50:06.421Z,69.15
2023-11-29T21:52:39.429Z,69.58
2023-11-29T21:55:10.349Z,69.56
2023-11-29T21:57:43.376Z,69.43
2023-11-29T22:00:17.847Z,69.09
2023-11-29T22:02:48.315Z,68.92
2023-11-29T22:05:16.534Z,68.94
2023-11-29T22:07:44.607Z,69.03
2023-11-29T22:10:18.481Z,69.18
2023-11-29T22:12:53.872Z,68.95
2023-11-29T22:15:22.006Z,69.20
2023-11-29T22:17:52.323Z,69.22
2023-11-29T22:20:24.733Z,69.37
2023-11-29T22:22:55.613Z,69.31
2023-11-29T22:25:23.614Z,69.29
2023-11-29T22:27:56.520Z,69.08
2023-11-29T22:30:24.563Z,69.66
2023-11-29T22:32:55.077Z,69.31
2023-11-29T22:35:25.537Z,69.49
2023-11-29T22:37:55.867Z,69.20
2023-11-29T22:40:29.416Z,69.00
2023-11-29T22:42:59.866Z,69.23
2023-11-29T22:45:30.426Z,69.36
2023-11-29T22:48:00.724Z,69.68
2023-11-29T22:50:28.909Z,69.75
2023-11-29T22:52:56.986Z,69.70
2023-11-29T22:55:32.680Z,69.38
2023-11-29T22:58:06.002Z,69.42
2023-11-29T23:00:34.014Z,69.55
2023-11-29T23:03:04.505Z,69.62
2023-11-29T23:05:37.449Z,69.74
2023-11-29T23:08:05.574Z,69.90
2023-11-29T23:10:35.893Z,70.12
2023-11-29T23:13:06.434Z,70.31
2023-11-29T23:15:35.033Z,70.32
2023-11-29T23:18:09.131Z,70.27
2023-11-29T23:20:41.853Z,70.45
2023-11-29T23:23:14.215Z,70.52
2023-11-29T23:25:50.753Z,70.60
2023-11-29T23:28:21.879Z,70.43
2023-11-29T23:30:52.156Z,70.58
2023-11-29T23:33:20.333Z,70.93
2023-11-29T23:35:48.331Z,70.62
2023-11-29T23:38:21.196Z,70.97
2023-11-29T23:40:51.484Z,71.13
2023-11-29T23:43:24.408Z,71.09
2023-11-29T23:45:52.357Z,71.24
2023-11-29T23:48:23.025Z,71.22
2023-11-29T23:50:51.083Z,71.49
2023-11-29T23:53:19.203Z,71.88
2023-11-29T23:55:47.206Z,71.92
2023-11-29T23:58:17.883Z,72.72
